<?xml version="1.0" encoding="UTF-8"?>
<gpx version="1.1" creator="Swiss Map online 2.4.3.201302181115" xmlns="http://www.topografix.com/GPX/1/1">
  <metadata>
    <author>
      <name>Federal Office of Topography Switzerland</name>
    </author>
  </metadata>
  <trk>
    <name>bottens536g.gpx</name>
    <trkseg>
      <trkpt lat="46.617201608703866" lon="6.660599530216366">
        <time>2013-10-15T16:22:03.000+02:00</time>
      </trkpt>
      <trkpt lat="46.617000945825225" lon="6.661516300122038">
        <time>2013-10-15T16:23:03.000+02:00</time>
      </trkpt>
      <trkpt lat="46.61713942668618" lon="6.662036536768884">
        <time>2013-10-15T16:23:03.000+02:00</time>
      </trkpt>
      <trkpt lat="46.617685525585756" lon="6.662968719411507">
        <time>2013-10-15T16:24:03.000+02:00</time>
      </trkpt>
      <trkpt lat="46.617735643978094" lon="6.663725233487721">
        <time>2013-10-15T16:24:03.000+02:00</time>
      </trkpt>
      <trkpt lat="46.61754483622023" lon="6.664772416400521">
        <time>2013-10-15T16:25:03.000+02:00</time>
      </trkpt>
      <trkpt lat="46.61716335302462" lon="6.66556120022246">
        <time>2013-10-15T16:26:03.000+02:00</time>
      </trkpt>
      <trkpt lat="46.61671775007762" lon="6.666181165782084">
        <time>2013-10-15T16:26:03.000+02:00</time>
      </trkpt>
      <trkpt lat="46.61598985753748" lon="6.667627626003261">
        <time>2013-10-15T16:28:03.000+02:00</time>
      </trkpt>
      <trkpt lat="46.614574388318516" lon="6.671172604490015">
        <time>2013-10-15T16:33:03.000+02:00</time>
      </trkpt>
      <trkpt lat="46.61378304939465" lon="6.673899201727272">
        <time>2013-10-15T16:36:03.000+02:00</time>
      </trkpt>
      <trkpt lat="46.61351450674271" lon="6.674098812312801">
        <time>2013-10-15T16:36:03.000+02:00</time>
      </trkpt>
      <trkpt lat="46.61334028401881" lon="6.674949822309284">
        <time>2013-10-15T16:37:03.000+02:00</time>
      </trkpt>
      <trkpt lat="46.61321146686838" lon="6.675865460492117">
        <time>2013-10-15T16:38:03.000+02:00</time>
      </trkpt>
      <trkpt lat="46.61339546819509" lon="6.676476438668249">
        <time>2013-10-15T16:39:03.000+02:00</time>
      </trkpt>
      <trkpt lat="46.61445834969201" lon="6.678028075626182">
        <time>2013-10-15T16:41:03.000+02:00</time>
      </trkpt>
      <trkpt lat="46.614623306008795" lon="6.678482682912803">
        <time>2013-10-15T16:41:03.000+02:00</time>
      </trkpt>
      <trkpt lat="46.61451097447096" lon="6.679176169446423">
        <time>2013-10-15T16:42:03.000+02:00</time>
      </trkpt>
      <trkpt lat="46.61379088604378" lon="6.681823320230364">
        <time>2013-10-15T16:45:03.000+02:00</time>
      </trkpt>
      <trkpt lat="46.6131728959713" lon="6.683594321440589">
        <time>2013-10-15T16:47:03.000+02:00</time>
      </trkpt>
      <trkpt lat="46.61300118922411" lon="6.684836895752323">
        <time>2013-10-15T16:48:03.000+02:00</time>
      </trkpt>
      <trkpt lat="46.61266738392604" lon="6.686055604477887">
        <time>2013-10-15T16:49:03.000+02:00</time>
      </trkpt>
      <trkpt lat="46.61274725706605" lon="6.6872555070150295">
        <time>2013-10-15T16:51:03.000+02:00</time>
      </trkpt>
      <trkpt lat="46.612584338580525" lon="6.689842544464506">
        <time>2013-10-15T16:53:03.000+02:00</time>
      </trkpt>
      <trkpt lat="46.61301010755245" lon="6.690293569246973">
        <time>2013-10-15T16:53:03.000+02:00</time>
      </trkpt>
      <trkpt lat="46.61371275722345" lon="6.690440521077664">
        <time>2013-10-15T16:54:03.000+02:00</time>
      </trkpt>
      <trkpt lat="46.61422573824872" lon="6.690472601863734">
        <time>2013-10-15T16:54:03.000+02:00</time>
      </trkpt>
      <trkpt lat="46.615869285537066" lon="6.6900582498082475">
        <time>2013-10-15T16:56:03.000+02:00</time>
      </trkpt>
      <trkpt lat="46.614484186652255" lon="6.691474259650352">
        <time>2013-10-15T16:58:03.000+02:00</time>
      </trkpt>
      <trkpt lat="46.61444160274659" lon="6.691840383480742">
        <time>2013-10-15T16:58:03.000+02:00</time>
      </trkpt>
      <trkpt lat="46.61480695753076" lon="6.692683920525588">
        <time>2013-10-15T16:59:03.000+02:00</time>
      </trkpt>
      <trkpt lat="46.615731028825834" lon="6.693676447533902">
        <time>2013-10-15T17:00:03.000+02:00</time>
      </trkpt>
      <trkpt lat="46.61591289123765" lon="6.693974217316324">
        <time>2013-10-15T17:00:03.000+02:00</time>
      </trkpt>
      <trkpt lat="46.615737244036815" lon="6.694629390772427">
        <time>2013-10-15T17:00:03.000+02:00</time>
      </trkpt>
      <trkpt lat="46.61538228473478" lon="6.695378405721964">
        <time>2013-10-15T17:00:03.000+02:00</time>
      </trkpt>
      <trkpt lat="46.61502545203958" lon="6.695840226162209">
        <time>2013-10-15T17:00:03.000+02:00</time>
      </trkpt>
      <trkpt lat="46.614514850568554" lon="6.696173598315884">
        <time>2013-10-15T17:00:03.000+02:00</time>
      </trkpt>
      <trkpt lat="46.61411049244474" lon="6.696244413145163">
        <time>2013-10-15T17:00:03.000+02:00</time>
      </trkpt>
      <trkpt lat="46.61330372797861" lon="6.696686268609917">
        <time>2013-10-15T17:01:03.000+02:00</time>
      </trkpt>
      <trkpt lat="46.613125266784444" lon="6.696910639709375">
        <time>2013-10-15T17:01:03.000+02:00</time>
      </trkpt>
      <trkpt lat="46.613176176666286" lon="6.697823762327176">
        <time>2013-10-15T17:02:03.000+02:00</time>
      </trkpt>
      <trkpt lat="46.613580535791634" lon="6.6977529605273585">
        <time>2013-10-15T17:02:03.000+02:00</time>
      </trkpt>
      <trkpt lat="46.6138238290534" lon="6.6978149074328295">
        <time>2013-10-15T17:02:03.000+02:00</time>
      </trkpt>
      <trkpt lat="46.61443973493551" lon="6.698459229805684">
        <time>2013-10-15T17:03:03.000+02:00</time>
      </trkpt>
      <trkpt lat="46.617390036186336" lon="6.6997897601638705">
        <time>2013-10-15T17:07:03.000+02:00</time>
      </trkpt>
      <trkpt lat="46.61750950758944" lon="6.700179799135848">
        <time>2013-10-15T17:07:03.000+02:00</time>
      </trkpt>
      <trkpt lat="46.617152655482116" lon="6.700641606073544">
        <time>2013-10-15T17:07:03.000+02:00</time>
      </trkpt>
      <trkpt lat="46.61672240604384" lon="6.700882463954481">
        <time>2013-10-15T17:07:03.000+02:00</time>
      </trkpt>
      <trkpt lat="46.61438281696873" lon="6.700783771065126">
        <time>2013-10-15T17:11:03.000+02:00</time>
      </trkpt>
      <trkpt lat="46.613916502111266" lon="6.70101205169898">
        <time>2013-10-15T17:11:03.000+02:00</time>
      </trkpt>
      <trkpt lat="46.613580923536226" lon="6.701982664572441">
        <time>2013-10-15T17:12:03.000+02:00</time>
      </trkpt>
      <trkpt lat="46.61270065967599" lon="6.702190448511362">
        <time>2013-10-15T17:13:03.000+02:00</time>
      </trkpt>
      <trkpt lat="46.61250234466341" lon="6.702127871883271">
        <time>2013-10-15T17:13:03.000+02:00</time>
      </trkpt>
      <trkpt lat="46.61236615344177" lon="6.701933907611863">
        <time>2013-10-15T17:13:03.000+02:00</time>
      </trkpt>
      <trkpt lat="46.612105687371894" lon="6.700605910239325">
        <time>2013-10-15T17:14:03.000+02:00</time>
      </trkpt>
      <trkpt lat="46.6116636870684" lon="6.701812916249081">
        <time>2013-10-15T17:15:03.000+02:00</time>
      </trkpt>
      <trkpt lat="46.611447478721416" lon="6.703160432624854">
        <time>2013-10-15T17:16:03.000+02:00</time>
      </trkpt>
      <trkpt lat="46.61134138659301" lon="6.703449063096283">
        <time>2013-10-15T17:16:03.000+02:00</time>
      </trkpt>
      <trkpt lat="46.61102974908195" lon="6.703949344673762">
        <time>2013-10-15T17:16:03.000+02:00</time>
      </trkpt>
      <trkpt lat="46.61091633917204" lon="6.704499150694088">
        <time>2013-10-15T17:16:03.000+02:00</time>
      </trkpt>
      <trkpt lat="46.61069271881031" lon="6.704697989638572">
        <time>2013-10-15T17:16:03.000+02:00</time>
      </trkpt>
      <trkpt lat="46.61046809107798" lon="6.704740193776884">
        <time>2013-10-15T17:16:03.000+02:00</time>
      </trkpt>
      <trkpt lat="46.60947736209229" lon="6.704557806626905">
        <time>2013-10-15T17:17:03.000+02:00</time>
      </trkpt>
      <trkpt lat="46.60837659089529" lon="6.704050582292016">
        <time>2013-10-15T17:18:03.000+02:00</time>
      </trkpt>
      <trkpt lat="46.60821341737404" lon="6.7038569938737185">
        <time>2013-10-15T17:18:03.000+02:00</time>
      </trkpt>
      <trkpt lat="46.6083286738541" lon="6.703594363364159">
        <time>2013-10-15T17:18:03.000+02:00</time>
      </trkpt>
      <trkpt lat="46.60906097992639" lon="6.7027620556175345">
        <time>2013-10-15T17:19:03.000+02:00</time>
      </trkpt>
      <trkpt lat="46.60926744826296" lon="6.702693983745135">
        <time>2013-10-15T17:19:03.000+02:00</time>
      </trkpt>
      <trkpt lat="46.60932982534861" lon="6.70260176119572">
        <time>2013-10-15T17:19:03.000+02:00</time>
      </trkpt>
      <trkpt lat="46.60931074062476" lon="6.702432323306848">
        <time>2013-10-15T17:19:03.000+02:00</time>
      </trkpt>
      <trkpt lat="46.60912940557433" lon="6.702212876035252">
        <time>2013-10-15T17:19:03.000+02:00</time>
      </trkpt>
      <trkpt lat="46.60881432165672" lon="6.7021779974706535">
        <time>2013-10-15T17:19:03.000+02:00</time>
      </trkpt>
      <trkpt lat="46.60869595236358" lon="6.701957697067419">
        <time>2013-10-15T17:19:03.000+02:00</time>
      </trkpt>
      <trkpt lat="46.60795413357873" lon="6.701315116719803">
        <time>2013-10-15T17:20:03.000+02:00</time>
      </trkpt>
      <trkpt lat="46.607639302331975" lon="6.701319400365195">
        <time>2013-10-15T17:20:03.000+02:00</time>
      </trkpt>
      <trkpt lat="46.60730504709046" lon="6.7011020448248">
        <time>2013-10-15T17:20:03.000+02:00</time>
      </trkpt>
      <trkpt lat="46.60710009749399" lon="6.70140505531203">
        <time>2013-10-15T17:20:03.000+02:00</time>
      </trkpt>
      <trkpt lat="46.606861441240426" lon="6.702060953780479">
        <time>2013-10-15T17:20:03.000+02:00</time>
      </trkpt>
      <trkpt lat="46.606371084467185" lon="6.702746370316179">
        <time>2013-10-15T17:21:03.000+02:00</time>
      </trkpt>
      <trkpt lat="46.606013212409856" lon="6.703051445007224">
        <time>2013-10-15T17:21:03.000+02:00</time>
      </trkpt>
      <trkpt lat="46.6056548349875" lon="6.703278206062695">
        <time>2013-10-15T17:21:03.000+02:00</time>
      </trkpt>
      <trkpt lat="46.60547493135537" lon="6.703280647232828">
        <time>2013-10-15T17:21:03.000+02:00</time>
      </trkpt>
      <trkpt lat="46.605291915212206" lon="6.702800182433162">
        <time>2013-10-15T17:21:03.000+02:00</time>
      </trkpt>
      <trkpt lat="46.60524988362158" lon="6.703257595668174">
        <time>2013-10-15T17:21:03.000+02:00</time>
      </trkpt>
      <trkpt lat="46.60500406962357" lon="6.704200717254267">
        <time>2013-10-15T17:22:03.000+02:00</time>
      </trkpt>
      <trkpt lat="46.6040627658536" lon="6.704709463210439">
        <time>2013-10-15T17:23:03.000+02:00</time>
      </trkpt>
      <trkpt lat="46.60380104455917" lon="6.7059790797421455">
        <time>2013-10-15T17:24:03.000+02:00</time>
      </trkpt>
      <trkpt lat="46.60338019750097" lon="6.706284969437721">
        <time>2013-10-15T17:24:03.000+02:00</time>
      </trkpt>
      <trkpt lat="46.602948596073766" lon="6.706316905878076">
        <time>2013-10-15T17:24:03.000+02:00</time>
      </trkpt>
      <trkpt lat="46.60177628986542" lon="6.70587593329168">
        <time>2013-10-15T17:26:03.000+02:00</time>
      </trkpt>
      <trkpt lat="46.60239867643783" lon="6.707538167938708">
        <time>2013-10-15T17:28:03.000+02:00</time>
      </trkpt>
      <trkpt lat="46.60249197140001" lon="6.70805898825159">
        <time>2013-10-15T17:28:03.000+02:00</time>
      </trkpt>
      <trkpt lat="46.60219655027006" lon="6.708284852851877">
        <time>2013-10-15T17:28:03.000+02:00</time>
      </trkpt>
      <trkpt lat="46.600713847217456" lon="6.708539760864459">
        <time>2013-10-15T17:30:03.000+02:00</time>
      </trkpt>
      <trkpt lat="46.59918190898347" lon="6.708129708116381">
        <time>2013-10-15T17:32:03.000+02:00</time>
      </trkpt>
      <trkpt lat="46.59848551864441" lon="6.707551798759521">
        <time>2013-10-15T17:33:03.000+02:00</time>
      </trkpt>
      <trkpt lat="46.59775988011121" lon="6.706621926612516">
        <time>2013-10-15T17:34:03.000+02:00</time>
      </trkpt>
      <trkpt lat="46.59737576499082" lon="6.70704473789419">
        <time>2013-10-15T17:34:03.000+02:00</time>
      </trkpt>
      <trkpt lat="46.59688587949558" lon="6.707808286062687">
        <time>2013-10-15T17:35:03.000+02:00</time>
      </trkpt>
      <trkpt lat="46.59622000734157" lon="6.709187562193588">
        <time>2013-10-15T17:37:03.000+02:00</time>
      </trkpt>
      <trkpt lat="46.594642928220736" lon="6.70875203280956">
        <time>2013-10-15T17:39:03.000+02:00</time>
      </trkpt>
      <trkpt lat="46.59437432429621" lon="6.708951399822584">
        <time>2013-10-15T17:39:03.000+02:00</time>
      </trkpt>
      <trkpt lat="46.594066579941725" lon="6.7100647871489505">
        <time>2013-10-15T17:40:03.000+02:00</time>
      </trkpt>
      <trkpt lat="46.59431074931302" lon="6.71308910349039">
        <time>2013-10-15T17:43:03.000+02:00</time>
      </trkpt>
      <trkpt lat="46.59418079692568" lon="6.713873840410249">
        <time>2013-10-15T17:43:03.000+02:00</time>
      </trkpt>
      <trkpt lat="46.59418435943995" lon="6.7144349409735895">
        <time>2013-10-15T17:43:03.000+02:00</time>
      </trkpt>
      <trkpt lat="46.59488863432243" lon="6.714843135631153">
        <time>2013-10-15T17:44:03.000+02:00</time>
      </trkpt>
      <trkpt lat="46.59507333647347" lon="6.7155975792247995">
        <time>2013-10-15T17:44:03.000+02:00</time>
      </trkpt>
      <trkpt lat="46.59445028236459" lon="6.716649891579519">
        <time>2013-10-15T17:45:03.000+02:00</time>
      </trkpt>
      <trkpt lat="46.594289194308146" lon="6.7167825369622545">
        <time>2013-10-15T17:45:03.000+02:00</time>
      </trkpt>
      <trkpt lat="46.59420460476598" lon="6.717631910726675">
        <time>2013-10-15T17:46:03.000+02:00</time>
      </trkpt>
      <trkpt lat="46.59405209856899" lon="6.717699188837484">
        <time>2013-10-15T17:46:03.000+02:00</time>
      </trkpt>
      <trkpt lat="46.59369187825506" lon="6.717638730527058">
        <time>2013-10-15T17:46:03.000+02:00</time>
      </trkpt>
      <trkpt lat="46.59292068536698" lon="6.716605016039953">
        <time>2013-10-15T17:47:03.000+02:00</time>
      </trkpt>
      <trkpt lat="46.59275604617687" lon="6.716176571858169">
        <time>2013-10-15T17:47:03.000+02:00</time>
      </trkpt>
      <trkpt lat="46.59217011869247" lon="6.715988638798033">
        <time>2013-10-15T17:47:03.000+02:00</time>
      </trkpt>
      <trkpt lat="46.59170319454796" lon="6.716125356892348">
        <time>2013-10-15T17:47:03.000+02:00</time>
      </trkpt>
      <trkpt lat="46.58968546648988" lon="6.717130914152772">
        <time>2013-10-15T17:50:03.000+02:00</time>
      </trkpt>
      <trkpt lat="46.5898478635398" lon="6.7186293770546">
        <time>2013-10-15T17:52:03.000+02:00</time>
      </trkpt>
      <trkpt lat="46.589790245827444" lon="6.719478320247393">
        <time>2013-10-15T17:52:03.000+02:00</time>
      </trkpt>
      <trkpt lat="46.58994932809522" lon="6.720454879488761">
        <time>2013-10-15T17:53:03.000+02:00</time>
      </trkpt>
      <trkpt lat="46.59053910560844" lon="6.721256108355798">
        <time>2013-10-15T17:54:03.000+02:00</time>
      </trkpt>
      <trkpt lat="46.591689038022764" lon="6.722441430386143">
        <time>2013-10-15T17:56:03.000+02:00</time>
      </trkpt>
      <trkpt lat="46.591916210847444" lon="6.72280381220266">
        <time>2013-10-15T17:56:03.000+02:00</time>
      </trkpt>
      <trkpt lat="46.59218950385429" lon="6.723348280823784">
        <time>2013-10-15T17:56:03.000+02:00</time>
      </trkpt>
      <trkpt lat="46.592538269111486" lon="6.724452890296144">
        <time>2013-10-15T17:57:03.000+02:00</time>
      </trkpt>
      <trkpt lat="46.592557892628264" lon="6.724713622771312">
        <time>2013-10-15T17:57:03.000+02:00</time>
      </trkpt>
      <trkpt lat="46.592315838278566" lon="6.724847305507088">
        <time>2013-10-15T17:57:03.000+02:00</time>
      </trkpt>
      <trkpt lat="46.59240611686751" lon="6.72489831482722">
        <time>2013-10-15T17:57:03.000+02:00</time>
      </trkpt>
      <trkpt lat="46.59144583247459" lon="6.725263288740793">
        <time>2013-10-15T17:58:03.000+02:00</time>
      </trkpt>
      <trkpt lat="46.591488768636644" lon="6.724936491424785">
        <time>2013-10-15T17:58:03.000+02:00</time>
      </trkpt>
      <trkpt lat="46.5911886609303" lon="6.724418473667593">
        <time>2013-10-15T17:58:03.000+02:00</time>
      </trkpt>
      <trkpt lat="46.589695049094324" lon="6.722937532395373">
        <time>2013-10-15T18:01:03.000+02:00</time>
      </trkpt>
      <trkpt lat="46.58924144037309" lon="6.72233022946342">
        <time>2013-10-15T18:02:03.000+02:00</time>
      </trkpt>
      <trkpt lat="46.58851830006991" lon="6.721778695317365">
        <time>2013-10-15T18:03:03.000+02:00</time>
      </trkpt>
      <trkpt lat="46.588092491154605" lon="6.721301532096554">
        <time>2013-10-15T18:03:03.000+02:00</time>
      </trkpt>
      <trkpt lat="46.587501399749286" lon="6.720291582949984">
        <time>2013-10-15T18:04:03.000+02:00</time>
      </trkpt>
      <trkpt lat="46.58722973595611" lon="6.72000812057716">
        <time>2013-10-15T18:04:03.000+02:00</time>
      </trkpt>
      <trkpt lat="46.58664315699688" lon="6.71971578887353">
        <time>2013-10-15T18:05:03.000+02:00</time>
      </trkpt>
      <trkpt lat="46.58535396407259" lon="6.719276210404731">
        <time>2013-10-15T18:07:03.000+02:00</time>
      </trkpt>
      <trkpt lat="46.58483918024963" lon="6.718956848338827">
        <time>2013-10-15T18:07:03.000+02:00</time>
      </trkpt>
      <trkpt lat="46.58452475947755" lon="6.71902626015082">
        <time>2013-10-15T18:07:03.000+02:00</time>
      </trkpt>
      <trkpt lat="46.583870412883094" lon="6.719400274160582">
        <time>2013-10-15T18:08:03.000+02:00</time>
      </trkpt>
      <trkpt lat="46.583137491493304" lon="6.720153692218078">
        <time>2013-10-15T18:09:03.000+02:00</time>
      </trkpt>
      <trkpt lat="46.58275792193078" lon="6.721306875198716">
        <time>2013-10-15T18:10:03.000+02:00</time>
      </trkpt>
      <trkpt lat="46.582260477583205" lon="6.720882903105761">
        <time>2013-10-15T18:10:03.000+02:00</time>
      </trkpt>
      <trkpt lat="46.58095206640174" lon="6.720247885628456">
        <time>2013-10-15T18:12:03.000+02:00</time>
      </trkpt>
      <trkpt lat="46.57987099790737" lon="6.720001278983604">
        <time>2013-10-15T18:13:03.000+02:00</time>
      </trkpt>
      <trkpt lat="46.57935440688529" lon="6.71939494608621">
        <time>2013-10-15T18:14:03.000+02:00</time>
      </trkpt>
      <trkpt lat="46.57799252416701" lon="6.717416965378092">
        <time>2013-10-15T18:17:03.000+02:00</time>
      </trkpt>
      <trkpt lat="46.57755580300891" lon="6.716640017461949">
        <time>2013-10-15T18:18:03.000+02:00</time>
      </trkpt>
      <trkpt lat="46.57797500580956" lon="6.714651436249824">
        <time>2013-10-15T18:20:03.000+02:00</time>
      </trkpt>
      <trkpt lat="46.578686335406694" lon="6.713337316123283">
        <time>2013-10-15T18:21:03.000+02:00</time>
      </trkpt>
      <trkpt lat="46.57742094825636" lon="6.712401890208614">
        <time>2013-10-15T18:23:03.000+02:00</time>
      </trkpt>
      <trkpt lat="46.576069009508416" lon="6.712002538001531">
        <time>2013-10-15T18:25:03.000+02:00</time>
      </trkpt>
      <trkpt lat="46.575252539273286" lon="6.710930710935716">
        <time>2013-10-15T18:26:03.000+02:00</time>
      </trkpt>
      <trkpt lat="46.57493770720081" lon="6.710934936013667">
        <time>2013-10-15T18:26:03.000+02:00</time>
      </trkpt>
      <trkpt lat="46.57459031061441" lon="6.710065566944706">
        <time>2013-10-15T18:27:03.000+02:00</time>
      </trkpt>
      <trkpt lat="46.574587560331686" lon="6.709635110953476">
        <time>2013-10-15T18:27:03.000+02:00</time>
      </trkpt>
      <trkpt lat="46.574700744927355" lon="6.709046552208803">
        <time>2013-10-15T18:27:03.000+02:00</time>
      </trkpt>
      <trkpt lat="46.57451917195063" lon="6.7087880907237745">
        <time>2013-10-15T18:27:03.000+02:00</time>
      </trkpt>
      <trkpt lat="46.57381529231124" lon="6.708445347992382">
        <time>2013-10-15T18:28:03.000+02:00</time>
      </trkpt>
      <trkpt lat="46.57354309766193" lon="6.708083753511563">
        <time>2013-10-15T18:28:03.000+02:00</time>
      </trkpt>
      <trkpt lat="46.57354000550408" lon="6.707601130491685">
        <time>2013-10-15T18:28:03.000+02:00</time>
      </trkpt>
      <trkpt lat="46.57391968765811" lon="6.706487179727149">
        <time>2013-10-15T18:29:03.000+02:00</time>
      </trkpt>
      <trkpt lat="46.574249746148766" lon="6.706052232841338">
        <time>2013-10-15T18:29:03.000+02:00</time>
      </trkpt>
      <trkpt lat="46.575219383934794" lon="6.705752133981736">
        <time>2013-10-15T18:30:03.000+02:00</time>
      </trkpt>
      <trkpt lat="46.57683910590509" lon="6.705821561949829">
        <time>2013-10-15T18:32:03.000+02:00</time>
      </trkpt>
      <trkpt lat="46.57738576825444" lon="6.706896985129945">
        <time>2013-10-15T18:33:03.000+02:00</time>
      </trkpt>
      <trkpt lat="46.57760788590683" lon="6.706463470467981">
        <time>2013-10-15T18:33:03.000+02:00</time>
      </trkpt>
      <trkpt lat="46.57788592552639" lon="6.704933329108717">
        <time>2013-10-15T18:34:03.000+02:00</time>
      </trkpt>
      <trkpt lat="46.577550660804526" lon="6.701767696394579">
        <time>2013-10-15T18:37:03.000+02:00</time>
      </trkpt>
      <trkpt lat="46.57744044274454" lon="6.701416953863996">
        <time>2013-10-15T18:37:03.000+02:00</time>
      </trkpt>
      <trkpt lat="46.5770770085135" lon="6.7008609235530185">
        <time>2013-10-15T18:37:03.000+02:00</time>
      </trkpt>
      <trkpt lat="46.57610004072026" lon="6.700026251334055">
        <time>2013-10-15T18:39:03.000+02:00</time>
      </trkpt>
      <trkpt lat="46.575874569667036" lon="6.699938003691166">
        <time>2013-10-15T18:39:03.000+02:00</time>
      </trkpt>
      <trkpt lat="46.576965057342505" lon="6.694704814237418">
        <time>2013-10-15T18:44:03.000+02:00</time>
      </trkpt>
      <trkpt lat="46.57762255645544" lon="6.694826252945423">
        <time>2013-10-15T18:45:03.000+02:00</time>
      </trkpt>
      <trkpt lat="46.57831433488472" lon="6.69468630118672">
        <time>2013-10-15T18:46:03.000+02:00</time>
      </trkpt>
      <trkpt lat="46.578994670605844" lon="6.695551069911288">
        <time>2013-10-15T18:47:03.000+02:00</time>
      </trkpt>
      <trkpt lat="46.57972260624634" lon="6.696819650105093">
        <time>2013-10-15T18:48:03.000+02:00</time>
      </trkpt>
      <trkpt lat="46.580315091785245" lon="6.698011834470332">
        <time>2013-10-15T18:49:03.000+02:00</time>
      </trkpt>
      <trkpt lat="46.58014939614163" lon="6.700205926215428">
        <time>2013-10-15T18:51:03.000+02:00</time>
      </trkpt>
      <trkpt lat="46.580178492402474" lon="6.700531694993964">
        <time>2013-10-15T18:51:03.000+02:00</time>
      </trkpt>
      <trkpt lat="46.58082293734012" lon="6.700027144907626">
        <time>2013-10-15T18:52:03.000+02:00</time>
      </trkpt>
      <trkpt lat="46.58131665896869" lon="6.699863856327822">
        <time>2013-10-15T18:52:03.000+02:00</time>
      </trkpt>
      <trkpt lat="46.582530586844925" lon="6.699782078893429">
        <time>2013-10-15T18:53:03.000+02:00</time>
      </trkpt>
      <trkpt lat="46.58297907860407" lon="6.699580257615896">
        <time>2013-10-15T18:53:03.000+02:00</time>
      </trkpt>
      <trkpt lat="46.58338090294242" lon="6.69911812181331">
        <time>2013-10-15T18:53:03.000+02:00</time>
      </trkpt>
      <trkpt lat="46.583781455871424" lon="6.698460284375434">
        <time>2013-10-15T18:54:03.000+02:00</time>
      </trkpt>
      <trkpt lat="46.58438974138401" lon="6.6979300746812305">
        <time>2013-10-15T18:55:03.000+02:00</time>
      </trkpt>
      <trkpt lat="46.58507389230057" lon="6.6966159485103445">
        <time>2013-10-15T18:57:03.000+02:00</time>
      </trkpt>
      <trkpt lat="46.58534349320603" lon="6.69657311485958">
        <time>2013-10-15T18:57:03.000+02:00</time>
      </trkpt>
      <trkpt lat="46.5858805726844" lon="6.696161275758959">
        <time>2013-10-15T18:58:03.000+02:00</time>
      </trkpt>
      <trkpt lat="46.58639387978081" lon="6.694862482875693">
        <time>2013-10-15T18:59:03.000+02:00</time>
      </trkpt>
      <trkpt lat="46.58681222816841" lon="6.694178236198231">
        <time>2013-10-15T19:00:03.000+02:00</time>
      </trkpt>
      <trkpt lat="46.587511467719224" lon="6.693803279023283">
        <time>2013-10-15T19:01:03.000+02:00</time>
      </trkpt>
      <trkpt lat="46.587706635128335" lon="6.693383047786319">
        <time>2013-10-15T19:01:03.000+02:00</time>
      </trkpt>
      <trkpt lat="46.58777006628842" lon="6.692077331376461">
        <time>2013-10-15T19:02:03.000+02:00</time>
      </trkpt>
      <trkpt lat="46.588774536901056" lon="6.6916067937576775">
        <time>2013-10-15T19:03:03.000+02:00</time>
      </trkpt>
      <trkpt lat="46.59118925773632" lon="6.692186831400747">
        <time>2013-10-15T19:06:03.000+02:00</time>
      </trkpt>
      <trkpt lat="46.592317494652455" lon="6.692758523899204">
        <time>2013-10-15T19:07:03.000+02:00</time>
      </trkpt>
      <trkpt lat="46.593801954513424" lon="6.692777246364215">
        <time>2013-10-15T19:09:03.000+02:00</time>
      </trkpt>
      <trkpt lat="46.594403778190014" lon="6.692638464518461">
        <time>2013-10-15T19:09:03.000+02:00</time>
      </trkpt>
      <trkpt lat="46.59519723011805" lon="6.692914649162197">
        <time>2013-10-15T19:10:03.000+02:00</time>
      </trkpt>
      <trkpt lat="46.59506511596549" lon="6.693347123482187">
        <time>2013-10-15T19:10:03.000+02:00</time>
      </trkpt>
      <trkpt lat="46.595041708864294" lon="6.693895553556413">
        <time>2013-10-15T19:10:03.000+02:00</time>
      </trkpt>
      <trkpt lat="46.5951855710552" lon="6.695263850925861">
        <time>2013-10-15T19:11:03.000+02:00</time>
      </trkpt>
      <trkpt lat="46.59532347324592" lon="6.695718718752916">
        <time>2013-10-15T19:11:03.000+02:00</time>
      </trkpt>
      <trkpt lat="46.59630708671002" lon="6.6975714576674195">
        <time>2013-10-15T19:14:03.000+02:00</time>
      </trkpt>
      <trkpt lat="46.597577163021924" lon="6.699211543823115">
        <time>2013-10-15T19:16:03.000+02:00</time>
      </trkpt>
      <trkpt lat="46.59780145057574" lon="6.699117128009204">
        <time>2013-10-15T19:16:03.000+02:00</time>
      </trkpt>
      <trkpt lat="46.598333967370536" lon="6.698000528655974">
        <time>2013-10-15T19:17:03.000+02:00</time>
      </trkpt>
      <trkpt lat="46.59910279072439" lon="6.6986425809162915">
        <time>2013-10-15T19:18:03.000+02:00</time>
      </trkpt>
      <trkpt lat="46.60024957708325" lon="6.699305598165493">
        <time>2013-10-15T19:20:03.000+02:00</time>
      </trkpt>
      <trkpt lat="46.60123862404525" lon="6.699226847522942">
        <time>2013-10-15T19:21:03.000+02:00</time>
      </trkpt>
      <trkpt lat="46.60149158820158" lon="6.699393068943433">
        <time>2013-10-15T19:21:03.000+02:00</time>
      </trkpt>
      <trkpt lat="46.60182440982935" lon="6.69938852919381">
        <time>2013-10-15T19:21:03.000+02:00</time>
      </trkpt>
      <trkpt lat="46.6024789438915" lon="6.699053301537038">
        <time>2013-10-15T19:22:03.000+02:00</time>
      </trkpt>
      <trkpt lat="46.602854795664115" lon="6.698747974729375">
        <time>2013-10-15T19:22:03.000+02:00</time>
      </trkpt>
      <trkpt lat="46.603389680881506" lon="6.697996696690324">
        <time>2013-10-15T19:23:03.000+02:00</time>
      </trkpt>
      <trkpt lat="46.60350424600023" lon="6.697629668542079">
        <time>2013-10-15T19:23:03.000+02:00</time>
      </trkpt>
      <trkpt lat="46.603647408799006" lon="6.696126700406694">
        <time>2013-10-15T19:24:03.000+02:00</time>
      </trkpt>
      <trkpt lat="46.60393558053566" lon="6.694791413651997">
        <time>2013-10-15T19:25:03.000+02:00</time>
      </trkpt>
      <trkpt lat="46.60368073745114" lon="6.694338081828835">
        <time>2013-10-15T19:25:03.000+02:00</time>
      </trkpt>
      <trkpt lat="46.603137791525825" lon="6.693849557014143">
        <time>2013-10-15T19:25:03.000+02:00</time>
      </trkpt>
      <trkpt lat="46.602711184078785" lon="6.693268077775749">
        <time>2013-10-15T19:25:03.000+02:00</time>
      </trkpt>
      <trkpt lat="46.60252616349719" lon="6.6924875023484525">
        <time>2013-10-15T19:26:03.000+02:00</time>
      </trkpt>
      <trkpt lat="46.60267250650838" lon="6.6914804805109105">
        <time>2013-10-15T19:27:03.000+02:00</time>
      </trkpt>
      <trkpt lat="46.6029616508969" lon="6.690301804242729">
        <time>2013-10-15T19:28:03.000+02:00</time>
      </trkpt>
      <trkpt lat="46.603476514576805" lon="6.690621000546076">
        <time>2013-10-15T19:28:03.000+02:00</time>
      </trkpt>
      <trkpt lat="46.60399052924572" lon="6.689439193292029">
        <time>2013-10-15T19:29:03.000+02:00</time>
      </trkpt>
      <trkpt lat="46.6042753748771" lon="6.688978420320101">
        <time>2013-10-15T19:29:03.000+02:00</time>
      </trkpt>
      <trkpt lat="46.60303617379604" lon="6.687951391640461">
        <time>2013-10-15T19:31:03.000+02:00</time>
      </trkpt>
      <trkpt lat="46.60266906455146" lon="6.686847052974697">
        <time>2013-10-15T19:32:03.000+02:00</time>
      </trkpt>
      <trkpt lat="46.60225998146448" lon="6.686200130470986">
        <time>2013-10-15T19:32:03.000+02:00</time>
      </trkpt>
      <trkpt lat="46.603870067178484" lon="6.684807279688429">
        <time>2013-10-15T19:34:03.000+02:00</time>
      </trkpt>
      <trkpt lat="46.60487855975027" lon="6.684949881960918">
        <time>2013-10-15T19:35:03.000+02:00</time>
      </trkpt>
      <trkpt lat="46.605942401711886" lon="6.685300565283213">
        <time>2013-10-15T19:36:03.000+02:00</time>
      </trkpt>
      <trkpt lat="46.6063460638577" lon="6.685125265475584">
        <time>2013-10-15T19:36:03.000+02:00</time>
      </trkpt>
      <trkpt lat="46.60809937508452" lon="6.682268305454091">
        <time>2013-10-15T19:40:03.000+02:00</time>
      </trkpt>
      <trkpt lat="46.6083898966984" lon="6.681311349561086">
        <time>2013-10-15T19:41:03.000+02:00</time>
      </trkpt>
      <trkpt lat="46.608448530395926" lon="6.680657857628947">
        <time>2013-10-15T19:41:03.000+02:00</time>
      </trkpt>
      <trkpt lat="46.60707476127011" lon="6.679698089794193">
        <time>2013-10-15T19:43:03.000+02:00</time>
      </trkpt>
      <trkpt lat="46.60698376807072" lon="6.679542727031008">
        <time>2013-10-15T19:43:03.000+02:00</time>
      </trkpt>
      <trkpt lat="46.607353484446314" lon="6.67832360134165">
        <time>2013-10-15T19:44:03.000+02:00</time>
      </trkpt>
      <trkpt lat="46.607595339259824" lon="6.676819084244368">
        <time>2013-10-15T19:45:03.000+02:00</time>
      </trkpt>
      <trkpt lat="46.60787908756652" lon="6.676201589035326">
        <time>2013-10-15T19:45:03.000+02:00</time>
      </trkpt>
      <trkpt lat="46.60781306875166" lon="6.675745652318039">
        <time>2013-10-15T19:45:03.000+02:00</time>
      </trkpt>
      <trkpt lat="46.607153368212536" lon="6.67529807994644">
        <time>2013-10-15T19:46:03.000+02:00</time>
      </trkpt>
      <trkpt lat="46.60596268998565" lon="6.6748188439672">
        <time>2013-10-15T19:48:03.000+02:00</time>
      </trkpt>
      <trkpt lat="46.60384402304736" lon="6.67413082726845">
        <time>2013-10-15T19:51:03.000+02:00</time>
      </trkpt>
      <trkpt lat="46.60357443082633" lon="6.674173787412325">
        <time>2013-10-15T19:51:03.000+02:00</time>
      </trkpt>
      <trkpt lat="46.60398030135441" lon="6.671648951755932">
        <time>2013-10-15T19:53:03.000+02:00</time>
      </trkpt>
      <trkpt lat="46.604182363032045" lon="6.6709282079193635">
        <time>2013-10-15T19:53:03.000+02:00</time>
      </trkpt>
      <trkpt lat="46.60458275274595" lon="6.6702699089403525">
        <time>2013-10-15T19:54:03.000+02:00</time>
      </trkpt>
      <trkpt lat="46.60556720735171" lon="6.669511941923318">
        <time>2013-10-15T19:56:03.000+02:00</time>
      </trkpt>
      <trkpt lat="46.60605798045752" lon="6.668917595987581">
        <time>2013-10-15T19:56:03.000+02:00</time>
      </trkpt>
      <trkpt lat="46.60704409994025" lon="6.668407569366422">
        <time>2013-10-15T19:57:03.000+02:00</time>
      </trkpt>
      <trkpt lat="46.60737515813375" lon="6.668141799374743">
        <time>2013-10-15T19:57:03.000+02:00</time>
      </trkpt>
      <trkpt lat="46.60820421071977" lon="6.66702047068356">
        <time>2013-10-15T19:58:03.000+02:00</time>
      </trkpt>
      <trkpt lat="46.60851374308373" lon="6.666232853587838">
        <time>2013-10-15T19:58:03.000+02:00</time>
      </trkpt>
      <trkpt lat="46.608687723897326" lon="6.665355786935281">
        <time>2013-10-15T19:59:03.000+02:00</time>
      </trkpt>
      <trkpt lat="46.60972039567981" lon="6.665079973618773">
        <time>2013-10-15T20:00:03.000+02:00</time>
      </trkpt>
      <trkpt lat="46.611066126193265" lon="6.664538596524975">
        <time>2013-10-15T20:02:03.000+02:00</time>
      </trkpt>
      <trkpt lat="46.612009464419046" lon="6.664355412561416">
        <time>2013-10-15T20:03:03.000+02:00</time>
      </trkpt>
      <trkpt lat="46.612166365074465" lon="6.664940617103078">
        <time>2013-10-15T20:03:03.000+02:00</time>
      </trkpt>
      <trkpt lat="46.6141399432258" lon="6.666779276874454">
        <time>2013-10-15T20:06:03.000+02:00</time>
      </trkpt>
      <trkpt lat="46.61570774966694" lon="6.6631667535669985">
        <time>2013-10-15T20:10:03.000+02:00</time>
      </trkpt>
      <trkpt lat="46.61611120011904" lon="6.662965148830525">
        <time>2013-10-15T20:10:03.000+02:00</time>
      </trkpt>
      <trkpt lat="46.6163608455488" lon="6.662635189870446">
        <time>2013-10-15T20:10:03.000+02:00</time>
      </trkpt>
      <trkpt lat="46.61671399035879" lon="6.661650971042461">
        <time>2013-10-15T20:11:03.000+02:00</time>
      </trkpt>
      <trkpt lat="46.6168927376265" lon="6.661478685745003">
        <time>2013-10-15T20:11:03.000+02:00</time>
      </trkpt>
      <trkpt lat="46.617175602033505" lon="6.660743515168779">
        <time>2013-10-15T20:11:03.000+02:00</time>
      </trkpt>
    </trkseg>
  </trk>
</gpx>